createdAt,value
2017-09-09T00:00:12.964Z,27.40
2017-09-09T00:02:42.122Z,19.70
2017-09-09T00:05:12.135Z,21.40
2017-09-09T00:07:42.054Z,20.20
2017-09-09T00:10:11.250Z,21.93
2017-09-09T00:12:40.491Z,20.50
2017-09-09T00:15:10.367Z,27.63
2017-09-09T00:17:48.381Z,25.13
2017-09-09T00:20:19.819Z,19.43
2017-09-09T00:22:48.577Z,22.37
2017-09-09T00:25:18.630Z,20.10
2017-09-09T00:27:48.106Z,22.13
2017-09-09T00:30:18.045Z,20.63
2017-09-09T00:32:48.178Z,24.60
2017-09-09T00:35:17.059Z,22.53
2017-09-09T00:37:46.293Z,19.60
2017-09-09T00:40:15.273Z,21.30
2017-09-09T00:42:45.370Z,23.63
2017-09-09T00:45:14.436Z,22.17
2017-09-09T00:47:43.354Z,28.30
2017-09-09T00:50:12.271Z,26.13
2017-09-09T00:52:42.381Z,41.40
2017-09-09T00:55:12.700Z,30.87
2017-09-09T00:57:41.831Z,27.53
2017-09-09T01:00:11.050Z,24.87
2017-09-09T01:02:40.798Z,26.50
2017-09-09T01:05:11.853Z,32.40
2017-09-09T01:07:41.671Z,27.37
2017-09-09T01:10:21.365Z,25.73
2017-09-09T01:13:03.105Z,27.67
2017-09-09T01:15:34.144Z,25.60
2017-09-09T01:18:03.349Z,29.03
2017-09-09T01:20:32.405Z,22.60
2017-09-09T01:23:02.075Z,24.97
2017-09-09T01:25:32.048Z,27.30
2017-09-09T01:28:02.334Z,24.97
2017-09-09T01:30:31.573Z,32.30
2017-09-09T01:33:01.348Z,28.67
2017-09-09T01:35:30.552Z,30.90
2017-09-09T01:37:59.475Z,24.83
2017-09-09T01:40:28.366Z,25.33
2017-09-09T01:43:00.730Z,27.53
2017-09-09T01:45:29.658Z,21.73
2017-09-09T01:47:58.826Z,26.30
2017-09-09T01:50:28.952Z,25.10
2017-09-09T01:52:58.861Z,20.77
2017-09-09T01:55:28.169Z,22.53
2017-09-09T01:57:58.085Z,22.77
2017-09-09T02:00:28.199Z,27.70
2017-09-09T02:02:58.111Z,26.90
2017-09-09T02:05:27.183Z,28.73
2017-09-09T02:07:56.304Z,29.37
2017-09-09T02:10:26.016Z,26.87
2017-09-09T02:12:55.109Z,27.83
2017-09-09T02:15:24.276Z,26.07
2017-09-09T02:17:53.299Z,22.67
2017-09-09T02:20:22.293Z,27.03
2017-09-09T02:22:51.211Z,20.60
2017-09-09T02:25:21.112Z,22.70
2017-09-09T02:27:50.417Z,19.93
2017-09-09T02:30:19.292Z,26.10
2017-09-09T02:32:48.310Z,27.50
2017-09-09T02:35:18.193Z,33.90
2017-09-09T02:37:47.095Z,22.63
2017-09-09T02:40:16.499Z,28.87
2017-09-09T02:42:45.407Z,23.10
2017-09-09T02:45:14.192Z,24.70
2017-09-09T02:47:43.284Z,28.27
2017-09-09T02:50:12.982Z,31.53
2017-09-09T02:52:41.972Z,29.00
2017-09-09T02:55:11.684Z,27.23
2017-09-09T02:57:40.524Z,28.80
2017-09-09T03:00:09.463Z,30.07
2017-09-09T03:02:38.559Z,25.03
2017-09-09T03:05:07.552Z,26.87
2017-09-09T03:07:36.445Z,31.03
2017-09-09T03:10:05.335Z,24.40
2017-09-09T03:12:34.427Z,25.10
2017-09-09T03:15:04.149Z,20.17
2017-09-09T03:17:33.861Z,33.43
2017-09-09T03:20:02.700Z,23.13
2017-09-09T03:22:31.867Z,26.43
2017-09-09T03:25:01.166Z,26.80
2017-09-09T03:27:29.943Z,26.57
2017-09-09T03:29:59.029Z,21.67
2017-09-09T03:32:28.070Z,27.30
2017-09-09T03:34:58.040Z,27.27
2017-09-09T03:37:27.748Z,28.50
2017-09-09T03:39:57.665Z,25.47
2017-09-09T03:42:26.559Z,25.73
2017-09-09T03:44:55.339Z,25.63
2017-09-09T03:47:24.229Z,30.83
2017-09-09T03:49:52.919Z,23.70
2017-09-09T03:52:21.711Z,24.50
2017-09-09T03:54:50.804Z,26.37
2017-09-09T03:57:19.905Z,28.30
2017-09-09T03:59:48.791Z,27.43
2017-09-09T04:02:17.681Z,29.70
2017-09-09T04:04:48.547Z,29.30
2017-09-09T04:07:18.659Z,26.10
2017-09-09T04:09:48.348Z,23.70
2017-09-09T04:12:17.855Z,28.47
2017-09-09T04:14:46.554Z,28.63
2017-09-09T04:17:15.535Z,24.90
2017-09-09T04:19:44.425Z,28.17
2017-09-09T04:22:13.328Z,26.50
2017-09-09T04:24:42.207Z,27.60
2017-09-09T04:27:10.992Z,29.70
2017-09-09T04:29:40.057Z,36.43
2017-09-09T04:32:09.391Z,29.73
2017-09-09T04:34:38.279Z,21.50
2017-09-09T04:37:07.251Z,26.63
2017-09-09T04:39:37.193Z,29.73
2017-09-09T04:42:06.592Z,26.33
2017-09-09T04:44:35.490Z,23.93
2017-09-09T04:47:04.375Z,28.77
2017-09-09T04:49:34.290Z,25.97
2017-09-09T04:52:03.304Z,31.70
2017-09-09T04:54:32.281Z,25.03
2017-09-09T04:57:01.990Z,27.70
2017-09-09T04:59:31.190Z,24.23
2017-09-09T05:02:00.192Z,29.10
2017-09-09T05:04:29.178Z,30.50
2017-09-09T05:06:59.401Z,24.87
2017-09-09T05:09:28.606Z,25.17
2017-09-09T05:11:57.601Z,27.57
2017-09-09T05:14:26.543Z,25.40
2017-09-09T05:16:56.255Z,27.53
2017-09-09T05:19:25.304Z,24.50
2017-09-09T05:21:54.277Z,22.27
2017-09-09T05:24:23.374Z,27.80
2017-09-09T05:26:52.265Z,25.33
2017-09-09T05:29:21.193Z,29.10
2017-09-09T05:31:50.222Z,28.60
2017-09-09T05:34:19.149Z,28.60
2017-09-09T05:36:48.286Z,24.30
2017-09-09T05:39:18.051Z,32.83
2017-09-09T05:41:47.970Z,31.53
2017-09-09T05:44:16.754Z,30.13
2017-09-09T05:46:45.746Z,25.83
2017-09-09T05:49:14.761Z,27.77
2017-09-09T05:51:43.734Z,28.73
2017-09-09T05:54:13.521Z,27.70
2017-09-09T05:56:42.338Z,28.27
2017-09-09T05:59:11.126Z,31.70
2017-09-09T06:01:39.828Z,27.70
2017-09-09T06:04:08.966Z,24.13
2017-09-09T06:06:38.002Z,30.17
2017-09-09T06:09:06.902Z,24.00
2017-09-09T06:11:35.786Z,31.67
2017-09-09T06:14:05.082Z,29.80
2017-09-09T06:16:34.717Z,34.53
2017-09-09T06:19:03.786Z,27.50
2017-09-09T06:21:32.884Z,26.10
2017-09-09T06:24:01.997Z,27.93
2017-09-09T06:26:31.178Z,25.60
2017-09-09T06:29:00.208Z,26.00
2017-09-09T06:31:30.498Z,33.20
2017-09-09T06:33:59.601Z,26.00
2017-09-09T06:36:28.482Z,33.33
2017-09-09T06:38:57.381Z,25.50
2017-09-09T06:41:27.246Z,20.67
2017-09-09T06:43:56.203Z,28.83
2017-09-09T06:46:25.072Z,33.33
2017-09-09T06:48:54.080Z,30.23
2017-09-09T06:51:23.782Z,29.03
2017-09-09T06:53:53.977Z,24.70
2017-09-09T06:56:23.614Z,24.40
2017-09-09T06:59:08.365Z,22.47
2017-09-09T07:01:37.258Z,34.87
2017-09-09T07:04:06.149Z,31.43
2017-09-09T07:06:35.241Z,24.13
2017-09-09T07:09:04.443Z,22.53
2017-09-09T07:11:33.339Z,24.63
2017-09-09T07:14:02.429Z,26.90
2017-09-09T07:16:31.323Z,31.03
2017-09-09T07:19:00.536Z,32.63
2017-09-09T07:21:30.229Z,33.10
2017-09-09T07:24:00.277Z,27.50
2017-09-09T07:26:29.355Z,28.70
2017-09-09T07:28:58.341Z,30.23
2017-09-09T07:31:27.504Z,33.90
2017-09-09T07:33:56.540Z,43.60
2017-09-09T07:36:25.518Z,31.93
2017-09-09T07:38:54.822Z,24.40
2017-09-09T07:41:23.715Z,35.20
2017-09-09T07:43:53.427Z,28.45
2017-09-09T07:46:22.314Z,27.90
2017-09-09T07:48:51.296Z,25.10
2017-09-09T07:51:20.475Z,24.30
2017-09-09T07:53:49.499Z,31.93
2017-09-09T07:56:18.828Z,26.97
2017-09-09T07:58:48.183Z,36.07
2017-09-09T08:01:17.100Z,27.13
2017-09-09T08:03:46.808Z,32.83
2017-09-09T08:06:15.811Z,23.53
2017-09-09T08:08:45.216Z,31.13
2017-09-09T08:11:14.269Z,28.77
2017-09-09T08:13:43.387Z,50.67
2017-09-09T08:16:12.590Z,27.07
2017-09-09T08:18:43.215Z,23.77
2017-09-09T08:21:15.303Z,31.27
2017-09-09T08:23:44.588Z,31.10
2017-09-09T08:26:13.582Z,27.10
2017-09-09T08:28:43.023Z,27.30
2017-09-09T08:31:12.408Z,22.33
2017-09-09T08:33:42.320Z,31.03
2017-09-09T08:36:12.968Z,21.13
2017-09-09T08:38:42.491Z,20.03
2017-09-09T08:41:11.989Z,20.67
2017-09-09T08:43:44.566Z,29.93
2017-09-09T08:46:14.801Z,25.20
2017-09-09T08:48:45.453Z,25.57
2017-09-09T08:51:18.316Z,23.40
2017-09-09T08:53:48.019Z,21.70
2017-09-09T08:56:17.198Z,27.90
2017-09-09T08:58:47.102Z,24.93
2017-09-09T09:01:16.393Z,25.90
2017-09-09T09:03:46.869Z,22.17
2017-09-09T09:06:19.507Z,25.23
2017-09-09T09:08:49.728Z,21.50
2017-09-09T09:11:18.710Z,23.30
2017-09-09T09:13:47.811Z,23.50
2017-09-09T09:16:17.592Z,25.63
2017-09-09T09:18:46.903Z,30.90
2017-09-09T09:21:16.446Z,25.87
2017-09-09T09:23:45.727Z,24.00
2017-09-09T09:26:14.901Z,32.40
2017-09-09T09:28:45.410Z,30.20
2017-09-09T09:31:16.370Z,34.47
2017-09-09T09:33:45.710Z,22.57
2017-09-09T09:36:14.748Z,29.07
2017-09-09T09:38:44.185Z,27.50
2017-09-09T09:41:14.105Z,23.13
2017-09-09T09:43:43.568Z,23.30
2017-09-09T09:46:12.708Z,29.23
2017-09-09T09:48:43.180Z,26.53
2017-09-09T09:51:12.638Z,23.70
2017-09-09T09:53:42.957Z,26.00
2017-09-09T09:56:12.474Z,23.40
2017-09-09T09:58:42.194Z,22.97
2017-09-09T10:01:11.362Z,24.07
2017-09-09T10:03:40.321Z,21.00
2017-09-09T10:06:09.202Z,21.73
2017-09-09T10:08:38.361Z,19.80
2017-09-09T10:11:07.597Z,24.43
2017-09-09T10:13:36.424Z,26.37
2017-09-09T10:16:06.474Z,21.07
2017-09-09T10:18:36.406Z,42.93
2017-09-09T10:21:06.149Z,23.70
2017-09-09T10:23:35.913Z,26.17
2017-09-09T10:26:06.330Z,20.93
2017-09-09T10:28:37.069Z,23.87
2017-09-09T10:31:06.532Z,27.33
2017-09-09T10:33:37.107Z,23.43
2017-09-09T10:36:07.012Z,24.03
2017-09-09T10:38:37.156Z,29.10
2017-09-09T10:41:06.232Z,23.43
2017-09-09T10:43:36.303Z,23.53
2017-09-09T10:46:06.531Z,27.03
2017-09-09T10:48:36.400Z,25.77
2017-09-09T10:51:05.570Z,24.50
2017-09-09T10:53:34.776Z,22.17
2017-09-09T10:56:03.986Z,23.80
2017-09-09T10:58:35.608Z,28.70
2017-09-09T11:01:07.366Z,23.93
2017-09-09T11:03:38.436Z,29.33
2017-09-09T11:06:09.722Z,26.73
2017-09-09T11:08:38.922Z,32.80
2017-09-09T11:11:08.462Z,28.20
2017-09-09T11:13:38.761Z,29.90
2017-09-09T11:16:07.827Z,28.70
2017-09-09T11:18:37.416Z,34.17
2017-09-09T11:21:06.529Z,32.53
2017-09-09T11:23:38.112Z,26.40
2017-09-09T11:26:08.161Z,28.67
2017-09-09T11:28:37.825Z,20.80
2017-09-09T11:31:07.597Z,21.77
2017-09-09T11:33:36.820Z,24.80
2017-09-09T11:36:06.251Z,35.33
2017-09-09T11:38:35.411Z,31.10
2017-09-09T11:41:06.202Z,39.37
2017-09-09T11:43:35.731Z,25.23
2017-09-09T11:46:05.758Z,24.37
2017-09-09T11:48:34.759Z,23.17
2017-09-09T11:51:04.670Z,29.63
2017-09-09T11:53:35.165Z,14.67
2017-09-09T11:56:04.772Z,22.40
2017-09-09T11:58:33.900Z,18.67
2017-09-09T12:01:03.261Z,17.53
2017-09-09T12:03:32.503Z,25.37
2017-09-09T12:06:02.987Z,19.27
2017-09-09T12:08:32.044Z,31.27
2017-09-09T12:11:02.665Z,29.83
2017-09-09T12:13:32.099Z,30.93
2017-09-09T12:16:02.859Z,23.77
2017-09-09T12:18:33.381Z,38.60
2017-09-09T12:21:02.856Z,46.23
2017-09-09T12:23:31.951Z,32.10
2017-09-09T12:26:01.518Z,38.77
2017-09-09T12:28:31.357Z,36.27
2017-09-09T12:31:01.456Z,47.53
2017-09-09T12:33:31.525Z,37.00
2017-09-09T12:36:00.907Z,45.43
2017-09-09T12:38:30.687Z,45.73
2017-09-09T12:41:00.224Z,49.33
2017-09-09T12:43:29.798Z,52.00
2017-09-09T12:45:59.441Z,57.57
2017-09-09T12:48:28.202Z,49.90
2017-09-09T12:50:58.313Z,56.03
2017-09-09T12:53:27.270Z,58.93
2017-09-09T12:55:57.225Z,57.23
2017-09-09T12:58:26.160Z,58.67
2017-09-09T13:00:56.187Z,46.47
2017-09-09T13:03:25.731Z,48.23
2017-09-09T13:05:54.807Z,52.23
2017-09-09T13:08:24.787Z,50.17
2017-09-09T13:10:53.647Z,38.50
2017-09-09T13:13:22.507Z,39.67
2017-09-09T13:15:51.493Z,45.23
2017-09-09T13:18:23.192Z,32.73
2017-09-09T13:20:55.189Z,42.77
2017-09-09T13:23:26.534Z,36.30
2017-09-09T13:25:56.864Z,31.93
2017-09-09T13:28:26.973Z,30.23
2017-09-09T13:30:56.842Z,29.37
2017-09-09T13:33:25.958Z,31.47
2017-09-09T13:35:55.403Z,29.73
2017-09-09T13:38:24.875Z,24.70
2017-09-09T13:40:55.016Z,31.70
2017-09-09T13:43:24.204Z,28.43
2017-09-09T13:45:53.539Z,33.70
2017-09-09T13:48:23.358Z,37.90
2017-09-09T13:50:52.478Z,29.70
2017-09-09T13:53:21.803Z,21.33
2017-09-09T13:55:50.707Z,23.93
2017-09-09T13:58:21.004Z,20.03
2017-09-09T14:00:50.395Z,20.67
2017-09-09T14:03:19.863Z,18.80
2017-09-09T14:05:49.897Z,16.03
2017-09-09T14:08:19.199Z,16.50
2017-09-09T14:10:48.290Z,20.70
2017-09-09T14:13:20.836Z,21.03
2017-09-09T14:15:49.964Z,17.90
2017-09-09T14:18:21.268Z,17.87
2017-09-09T14:20:50.768Z,18.73
2017-09-09T14:23:21.590Z,18.03
2017-09-09T14:25:53.013Z,24.30
2017-09-09T14:28:23.050Z,16.43
2017-09-09T14:30:52.732Z,15.03
2017-09-09T14:33:22.050Z,14.23
2017-09-09T14:35:53.859Z,15.87
2017-09-09T14:38:24.333Z,13.00
2017-09-09T14:40:53.671Z,16.70
2017-09-09T14:43:27.902Z,19.27
2017-09-09T14:46:00.192Z,13.83
2017-09-09T14:48:33.198Z,15.73
2017-09-09T14:51:02.365Z,11.53
2017-09-09T14:53:33.595Z,11.63
2017-09-09T14:56:04.627Z,10.93
2017-09-09T14:58:34.304Z,14.20
2017-09-09T15:01:07.202Z,14.30
2017-09-09T15:03:42.413Z,12.93
2017-09-09T15:06:13.459Z,12.37
2017-09-09T15:08:46.209Z,10.63
2017-09-09T15:11:21.995Z,13.20
2017-09-09T15:13:56.623Z,16.60
2017-09-09T15:16:28.945Z,13.13
2017-09-09T15:18:59.060Z,13.67
2017-09-09T15:21:30.022Z,16.47
2017-09-09T15:24:02.465Z,19.10
2017-09-09T15:26:32.510Z,12.90
2017-09-09T15:29:06.647Z,14.37
2017-09-09T15:31:37.296Z,16.67
2017-09-09T15:34:09.988Z,15.50
2017-09-09T15:36:40.568Z,15.37
2017-09-09T15:39:10.329Z,16.00
2017-09-09T15:41:42.079Z,14.73
2017-09-09T15:44:13.538Z,16.77
2017-09-09T15:46:42.619Z,80.10
2017-09-09T15:49:12.037Z,18.63
2017-09-09T15:51:41.370Z,16.00
2017-09-09T15:54:10.535Z,16.00
2017-09-09T15:56:41.380Z,25.47
2017-09-09T15:59:11.085Z,14.53
2017-09-09T16:01:40.523Z,20.27
2017-09-09T16:04:11.265Z,20.40
2017-09-09T16:06:42.483Z,17.50
2017-09-09T16:09:12.290Z,19.00
2017-09-09T16:11:41.481Z,10.93
2017-09-09T16:14:10.894Z,14.27
2017-09-09T16:16:40.850Z,14.63
2017-09-09T16:19:11.200Z,15.80
2017-09-09T16:21:40.576Z,14.23
2017-09-09T16:24:09.765Z,15.03
2017-09-09T16:26:40.090Z,15.30
2017-09-09T16:29:09.699Z,15.03
2017-09-09T16:31:39.017Z,13.93
2017-09-09T16:34:09.770Z,12.30
2017-09-09T16:36:40.501Z,16.60
2017-09-09T16:39:09.962Z,11.20
2017-09-09T16:41:40.084Z,10.40
2017-09-09T16:44:09.746Z,10.07
2017-09-09T16:46:42.534Z,8.80
2017-09-09T16:49:11.989Z,13.77
2017-09-09T16:51:42.393Z,11.70
2017-09-09T16:54:12.521Z,9.67
2017-09-09T16:56:42.809Z,13.10
2017-09-09T16:59:15.378Z,10.53
2017-09-09T17:01:46.372Z,12.77
2017-09-09T17:04:15.544Z,11.03
2017-09-09T17:06:45.328Z,10.87
2017-09-09T17:09:15.141Z,11.93
2017-09-09T17:11:46.288Z,14.50
2017-09-09T17:14:16.265Z,16.20
2017-09-09T17:16:47.391Z,20.73
2017-09-09T17:19:17.415Z,17.17
2017-09-09T17:21:53.287Z,21.00
2017-09-09T17:24:22.836Z,21.90
2017-09-09T17:26:52.215Z,16.60
2017-09-09T17:29:22.780Z,15.10
2017-09-09T17:31:52.034Z,17.97
2017-09-09T17:34:21.600Z,17.90
2017-09-09T17:36:51.839Z,15.87
2017-09-09T17:39:21.395Z,21.67
2017-09-09T17:41:51.933Z,15.90
2017-09-09T17:44:21.351Z,15.03
2017-09-09T17:46:50.452Z,18.73
2017-09-09T17:49:19.938Z,13.93
2017-09-09T17:51:50.308Z,11.47
2017-09-09T17:54:20.433Z,11.40
2017-09-09T17:56:50.299Z,8.17
2017-09-09T17:59:20.320Z,14.70
2017-09-09T18:01:50.378Z,15.77
2017-09-09T18:04:19.669Z,13.60
2017-09-09T18:06:48.939Z,11.60
2017-09-09T18:09:18.552Z,18.70
2017-09-09T18:11:47.620Z,11.33
2017-09-09T18:14:16.662Z,20.73
2017-09-09T18:16:46.196Z,10.93
2017-09-09T18:19:15.512Z,11.60
2017-09-09T18:21:44.810Z,12.47
2017-09-09T18:24:14.246Z,17.53
2017-09-09T18:26:43.735Z,12.73
2017-09-09T18:29:13.054Z,8.97
2017-09-09T18:31:42.427Z,16.33
2017-09-09T18:34:12.623Z,18.37
2017-09-09T18:36:43.490Z,15.60
2017-09-09T18:39:13.454Z,13.33
2017-09-09T18:41:43.396Z,13.30
2017-09-09T18:44:14.296Z,13.73
2017-09-09T18:46:45.342Z,13.93
2017-09-09T18:49:15.004Z,11.77
2017-09-09T18:51:44.318Z,11.23
2017-09-09T18:54:13.176Z,13.43
2017-09-09T18:56:42.897Z,14.83
2017-09-09T18:59:12.786Z,11.80
2017-09-09T19:01:42.456Z,14.33
2017-09-09T19:04:11.925Z,12.60
2017-09-09T19:06:42.383Z,12.40
2017-09-09T19:09:11.570Z,10.20
2017-09-09T19:11:41.456Z,14.93
2017-09-09T19:14:10.986Z,13.37
2017-09-09T19:16:41.836Z,11.50
2017-09-09T19:19:11.120Z,8.50
2017-09-09T19:21:41.237Z,8.10
2017-09-09T19:24:11.021Z,12.33
2017-09-09T19:26:41.641Z,13.53
2017-09-09T19:29:12.000Z,8.10
2017-09-09T19:31:41.075Z,12.53
2017-09-09T19:34:10.860Z,9.67
2017-09-09T19:36:40.066Z,9.87
2017-09-09T19:39:09.685Z,14.20
2017-09-09T19:41:38.934Z,11.80
2017-09-09T19:44:08.032Z,19.23
2017-09-09T19:46:37.065Z,14.00
2017-09-09T19:49:06.985Z,9.50
2017-09-09T19:51:36.270Z,13.50
2017-09-09T19:54:05.759Z,8.73
2017-09-09T19:56:34.887Z,14.40
2017-09-09T19:59:04.279Z,18.00
2017-09-09T20:01:34.186Z,12.20
2017-09-09T20:04:04.946Z,10.73
2017-09-09T20:06:34.647Z,7.93
2017-09-09T20:09:03.936Z,13.70
2017-09-09T20:11:33.076Z,13.20
2017-09-09T20:14:02.552Z,10.50
2017-09-09T20:16:31.601Z,10.80
2017-09-09T20:19:01.080Z,11.47
2017-09-09T20:21:30.249Z,15.27
2017-09-09T20:23:59.242Z,17.67
2017-09-09T20:26:28.300Z,13.73
2017-09-09T20:28:57.313Z,10.57
2017-09-09T20:31:26.853Z,16.43
2017-09-09T20:33:56.311Z,11.27
2017-09-09T20:36:25.763Z,17.73
2017-09-09T20:38:54.898Z,9.77
2017-09-09T20:41:24.060Z,8.40
2017-09-09T20:43:53.343Z,10.13
2017-09-09T20:46:23.272Z,15.40
2017-09-09T20:48:52.408Z,17.00
2017-09-09T20:51:22.225Z,9.97
2017-09-09T20:53:51.628Z,11.90
2017-09-09T20:56:20.941Z,9.07
2017-09-09T20:58:51.368Z,12.30
2017-09-09T21:01:20.818Z,13.80
2017-09-09T21:03:50.268Z,9.23
2017-09-09T21:06:19.640Z,13.03
2017-09-09T21:08:49.112Z,9.90
2017-09-09T21:11:19.198Z,9.30
2017-09-09T21:13:48.443Z,8.60
2017-09-09T21:16:17.811Z,9.53
2017-09-09T21:18:48.161Z,16.53
2017-09-09T21:21:18.484Z,13.57
2017-09-09T21:23:48.777Z,11.00
2017-09-09T21:26:19.237Z,8.60
2017-09-09T21:28:48.855Z,8.70
2017-09-09T21:31:19.518Z,8.80
2017-09-09T21:33:48.941Z,12.27
2017-09-09T21:36:18.195Z,8.93
2017-09-09T21:38:47.630Z,7.20
2017-09-09T21:41:17.130Z,9.57
2017-09-09T21:43:46.705Z,19.63
2017-09-09T21:46:16.464Z,7.30
2017-09-09T21:48:45.491Z,10.10
2017-09-09T21:51:18.115Z,8.70
2017-09-09T21:53:47.560Z,7.50
2017-09-09T21:56:18.766Z,8.50
2017-09-09T21:58:47.678Z,6.07
2017-09-09T22:01:17.003Z,6.73
2017-09-09T22:03:47.079Z,15.70
2017-09-09T22:06:16.662Z,6.90
2017-09-09T22:08:46.265Z,5.70
2017-09-09T22:11:15.344Z,8.83
2017-09-09T22:13:44.875Z,11.47
2017-09-09T22:16:14.566Z,10.40
2017-09-09T22:18:44.889Z,12.50
2017-09-09T22:21:14.465Z,7.73
2017-09-09T22:23:43.600Z,6.00
2017-09-09T22:26:13.117Z,10.67
2017-09-09T22:28:42.635Z,14.60
2017-09-09T22:31:11.901Z,6.97
2017-09-09T22:33:43.344Z,10.00
2017-09-09T22:36:13.555Z,7.03
2017-09-09T22:38:43.572Z,6.33
2017-09-09T22:41:13.929Z,7.63
2017-09-09T22:43:42.886Z,11.43
2017-09-09T22:46:11.903Z,9.70
2017-09-09T22:48:41.220Z,8.57
2017-09-09T22:51:10.722Z,10.10
2017-09-09T22:53:40.196Z,16.73
2017-09-09T22:56:09.760Z,7.63
2017-09-09T22:58:39.032Z,6.07
2017-09-09T23:01:08.304Z,12.77
2017-09-09T23:03:38.575Z,12.40
2017-09-09T23:06:07.746Z,8.83
2017-09-09T23:08:37.041Z,9.97
2017-09-09T23:11:06.342Z,10.23
2017-09-09T23:13:35.437Z,10.73
2017-09-09T23:16:04.685Z,10.87
2017-09-09T23:18:33.688Z,6.73
2017-09-09T23:21:03.351Z,9.83
2017-09-09T23:23:33.414Z,11.73
2017-09-09T23:26:02.507Z,9.97
2017-09-09T23:28:31.799Z,15.23
2017-09-09T23:31:01.063Z,8.87
2017-09-09T23:33:30.060Z,7.73
2017-09-09T23:35:59.393Z,8.27
2017-09-09T23:38:28.492Z,11.60
2017-09-09T23:40:57.643Z,7.57
2017-09-09T23:43:27.968Z,11.30
2017-09-09T23:45:57.247Z,8.07
2017-09-09T23:48:26.775Z,9.13
2017-09-09T23:50:56.732Z,6.97
2017-09-09T23:53:26.503Z,13.20
2017-09-09T23:55:55.395Z,7.33
2017-09-09T23:58:24.686Z,8.20
